Time;durP1;ratioP1;P1;durP2;ratioP2;P2;SDS_P1;SDS_P2;PMS_P1;PMS_P2;Temp;Humidity;BMP_temperature;BMP_pressure;BME280_temperature;BME280_humidity;BME280_pressure;Samples;Min_cycle;Max_cycle;Signal;HPM_P1;HPM_P2
2021/11/26 00:00:27;;;;;;;65.63;34.92;;;2.40;99.90;;;;;;5074991;28;20027;-80
2021/11/26 00:02:53;;;;;;;65.35;34.47;;;2.50;99.90;;;;;;5074411;28;20111;-80
2021/11/26 00:05:19;;;;;;;67.82;36.65;;;2.50;99.90;;;;;;5093087;28;20107;-80
2021/11/26 00:07:44;;;;;;;65.93;35.35;;;2.50;99.90;;;;;;5074861;28;20115;-80
2021/11/26 00:10:10;;;;;;;63.80;34.72;;;2.40;99.90;;;;;;5074904;28;20493;-80
2021/11/26 00:12:36;;;;;;;64.40;34.47;;;2.50;99.90;;;;;;5093234;28;20031;-80
2021/11/26 00:15:12;;;;;;;67.43;34.92;;;2.40;99.90;;;;;;5074891;28;20024;-80
2021/11/26 00:17:45;;;;;;;72.55;35.22;;;2.40;99.90;;;;;;5092969;28;20104;-80
2021/11/26 00:20:11;;;;;;;62.28;34.45;;;2.40;99.90;;;;;;5074838;28;20020;-80
2021/11/26 00:22:37;;;;;;;66.15;35.75;;;2.40;99.90;;;;;;5092860;28;20440;-80
2021/11/26 00:25:03;;;;;;;69.88;37.30;;;2.30;99.90;;;;;;5092884;28;20101;-80
2021/11/26 00:27:28;;;;;;;59.85;32.92;;;2.30;99.90;;;;;;5074727;28;20020;-80
2021/11/26 00:29:54;;;;;;;70.60;36.20;;;2.40;99.90;;;;;;5092766;28;20089;-80
2021/11/26 00:32:20;;;;;;;68.10;34.67;;;2.50;99.90;;;;;;5074657;28;20024;-80
2021/11/26 00:34:46;;;;;;;66.65;36.15;;;2.70;99.90;;;;;;5074612;28;20031;-80
2021/11/26 00:37:12;;;;;;;70.97;36.65;;;2.70;99.90;;;;;;5092765;28;20496;-80
2021/11/26 00:39:38;;;;;;;61.35;31.38;;;2.60;99.90;;;;;;5074707;28;20047;-80
2021/11/26 00:42:03;;;;;;;65.03;34.97;;;2.70;99.90;;;;;;5074575;28;20020;-80
2021/11/26 00:44:29;;;;;;;65.10;35.08;;;2.60;99.90;;;;;;5092726;28;20115;-80
2021/11/26 00:46:55;;;;;;;60.80;34.80;;;2.50;99.90;;;;;;5074509;28;20025;-80
2021/11/26 00:49:21;;;;;;;67.63;36.00;;;2.30;99.90;;;;;;5074405;28;20062;-80
2021/11/26 00:51:46;;;;;;;66.13;34.67;;;2.40;99.90;;;;;;5074495;28;20059;-80
2021/11/26 00:54:12;;;;;;;70.85;36.33;;;2.40;99.90;;;;;;5074667;28;20016;-80
2021/11/26 00:56:38;;;;;;;59.53;34.28;;;2.30;99.90;;;;;;5074519;28;20073;-80
2021/11/26 00:59:04;;;;;;;61.30;34.75;;;2.20;99.90;;;;;;5074453;28;20031;-80
2021/11/26 01:01:29;;;;;;;59.35;32.67;;;2.30;99.90;;;;;;5074526;28;20078;-79
2021/11/26 01:03:55;;;;;;;59.70;32.70;;;2.50;99.90;;;;;;5074479;28;20024;-80
2021/11/26 01:06:21;;;;;;;55.17;30.83;;;2.80;99.90;;;;;;5092579;28;20027;-80
2021/11/26 01:08:47;;;;;;;61.58;33.30;;;3.00;99.90;;;;;;5074307;28;20032;-80
2021/11/26 01:11:13;;;;;;;60.65;34.00;;;3.00;99.90;;;;;;5093031;28;20027;-80
2021/11/26 01:13:39;;;;;;;68.53;34.95;;;2.70;99.90;;;;;;5093500;28;20101;-80
2021/11/26 01:16:05;;;;;;;63.67;32.92;;;2.80;99.90;;;;;;5077983;28;20475;-80
2021/11/26 01:18:30;;;;;;;63.53;34.28;;;2.80;99.90;;;;;;5077947;28;20035;-80
2021/11/26 01:20:57;;;;;;;57.63;30.38;;;2.80;99.90;;;;;;5077865;28;20059;-80
2021/11/26 01:23:24;;;;;;;62.92;35.45;;;2.60;99.90;;;;;;5096047;28;20028;-80
2021/11/26 01:25:51;;;;;;;60.03;31.15;;;2.70;99.90;;;;;;5077916;28;20028;-80
2021/11/26 01:28:17;;;;;;;61.47;34.90;;;2.50;99.90;;;;;;5077693;28;20058;-80
2021/11/26 01:30:49;;;;;;;63.28;35.72;;;2.50;99.90;;;;;;5077753;28;20043;-80
2021/11/26 01:33:18;;;;;;;63.33;34.72;;;2.30;99.90;;;;;;5077797;28;20021;-80
2021/11/26 01:35:47;;;;;;;60.90;33.38;;;2.20;99.90;;;;;;5077685;28;20020;-80
2021/11/26 01:38:13;;;;;;;66.10;33.65;;;2.20;99.90;;;;;;5054244;28;20049;-80
2021/11/26 01:40:40;;;;;;;61.78;34.47;;;2.30;99.90;;;;;;5054203;28;20032;-80
2021/11/26 01:43:08;;;;;;;54.53;30.83;;;2.40;99.90;;;;;;5054146;28;20025;-80
2021/11/26 01:45:56;;;;;;;66.28;34.72;;;2.40;99.90;;;;;;5053980;28;20476;-80
2021/11/26 01:48:23;;;;;;;61.08;32.72;;;2.40;99.90;;;;;;5053866;28;20083;-80
2021/11/26 01:50:52;;;;;;;59.95;32.60;;;2.40;99.90;;;;;;5055168;28;20097;-80
2021/11/26 01:53:18;;;;;;;62.28;32.63;;;2.40;99.90;;;;;;5055173;28;20083;-80
2021/11/26 01:55:44;;;;;;;61.13;33.33;;;2.30;99.90;;;;;;5055109;28;20491;-80
2021/11/26 01:58:11;;;;;;;59.78;32.97;;;2.40;99.90;;;;;;5055065;28;20032;-80
2021/11/26 02:00:40;;;;;;;64.50;34.03;;;2.30;99.90;;;;;;5053796;28;20039;-80
2021/11/26 02:03:06;;;;;;;61.25;33.58;;;2.50;99.90;;;;;;5055124;28;20043;-80
2021/11/26 02:05:31;;;;;;;65.65;34.75;;;2.40;99.90;;;;;;5053747;28;20029;-80
2021/11/26 02:07:57;;;;;;;55.78;31.23;;;2.30;99.90;;;;;;5054885;28;20039;-80
2021/11/26 02:10:23;;;;;;;57.33;31.02;;;2.30;99.90;;;;;;5054958;28;20021;-80
2021/11/26 02:12:49;;;;;;;58.92;31.80;;;2.50;99.90;;;;;;5053609;28;20107;-80
2021/11/26 02:15:21;;;;;;;55.35;30.75;;;2.60;99.90;;;;;;5053524;28;20088;-80
2021/11/26 02:17:53;;;;;;;55.67;29.67;;;2.60;99.90;;;;;;5053497;28;20112;-80
2021/11/26 02:20:28;;;;;;;50.50;28.98;;;2.60;99.90;;;;;;5053521;28;20090;-80
2021/11/26 02:22:56;;;;;;;57.60;32.35;;;2.70;99.90;;;;;;5053429;28;20048;-80
2021/11/26 02:25:24;;;;;;;56.55;32.95;;;2.70;99.90;;;;;;5052913;28;20020;-80
2021/11/26 02:27:52;;;;;;;54.67;30.52;;;2.60;99.90;;;;;;5053259;28;20023;-80
2021/11/26 02:30:19;;;;;;;56.13;30.35;;;2.50;99.90;;;;;;5053272;28;20435;-80
2021/11/26 02:32:54;;;;;;;54.42;30.73;;;2.70;99.90;;;;;;5053174;28;20044;-80
2021/11/26 02:35:20;;;;;;;50.75;30.40;;;2.90;99.90;;;;;;5054468;28;20029;-80
2021/11/26 02:37:46;;;;;;;54.58;30.17;;;2.90;99.90;;;;;;5069439;28;20048;-80
2021/11/26 02:40:14;;;;;;;60.45;32.22;;;2.80;99.90;;;;;;5072894;28;20028;-79
2021/11/26 02:42:40;;;;;;;49.35;27.90;;;2.60;99.90;;;;;;5072878;28;20020;-79
2021/11/26 02:45:09;;;;;;;49.78;28.08;;;2.80;99.90;;;;;;5072811;28;20032;-80
2021/11/26 02:47:37;;;;;;;53.95;30.33;;;2.80;99.90;;;;;;5072853;28;20017;-80
2021/11/26 02:50:06;;;;;;;53.78;29.50;;;2.90;99.90;;;;;;5072689;28;20495;-80
2021/11/26 02:52:33;;;;;;;48.17;27.50;;;2.90;99.90;;;;;;5072639;28;20116;-80
2021/11/26 02:54:59;;;;;;;54.80;28.95;;;3.10;99.90;;;;;;5072667;28;20024;-80
2021/11/26 02:57:25;;;;;;;63.05;33.85;;;3.20;99.90;;;;;;5073872;28;20384;-80
2021/11/26 02:59:50;;;;;;;54.13;29.15;;;2.90;99.90;;;;;;5072541;28;20480;-79
2021/11/26 03:02:16;;;;;;;60.30;33.30;;;2.90;99.90;;;;;;5073774;28;20029;-80
2021/11/26 03:04:42;;;;;;;62.47;34.53;;;2.80;99.90;;;;;;5072431;28;20025;-80
2021/11/26 03:07:09;;;;;;;61.95;33.08;;;2.50;99.90;;;;;;5072395;28;20031;-80
2021/11/26 03:09:36;;;;;;;63.90;33.25;;;2.30;99.90;;;;;;5073855;28;20025;-80
2021/11/26 03:12:03;;;;;;;65.32;35.08;;;2.20;99.90;;;;;;5073603;28;20017;-80
2021/11/26 03:14:28;;;;;;;60.85;33.17;;;2.10;99.90;;;;;;5073549;28;20095;-80
2021/11/26 03:16:54;;;;;;;59.55;31.63;;;2.10;99.90;;;;;;5073546;28;20040;-80
2021/11/26 03:19:20;;;;;;;59.13;31.77;;;2.10;99.90;;;;;;5072159;28;20544;-80
2021/11/26 03:21:46;;;;;;;57.13;31.35;;;2.10;99.90;;;;;;5073802;28;20379;-80
2021/11/26 03:24:11;;;;;;;58.20;31.90;;;2.20;99.90;;;;;;5072138;28;20020;-79
2021/11/26 03:26:37;;;;;;;51.65;28.52;;;2.50;99.90;;;;;;5073408;28;20029;-79
2021/11/26 03:29:04;;;;;;;49.28;28.73;;;2.60;99.90;;;;;;5072046;28;20029;-79
2021/11/26 03:31:30;;;;;;;58.92;31.23;;;2.90;99.90;;;;;;5073587;28;20044;-80
2021/11/26 03:33:55;;;;;;;55.58;31.85;;;2.90;99.90;;;;;;5071999;28;20475;-80
2021/11/26 03:36:21;;;;;;;52.55;30.42;;;2.60;99.90;;;;;;5077157;28;20046;-80
2021/11/26 03:38:47;;;;;;;57.10;31.30;;;2.50;99.90;;;;;;5093436;28;20031;-80
2021/11/26 03:41:13;;;;;;;61.17;32.85;;;2.50;99.90;;;;;;5093625;28;20454;-80
2021/11/26 03:43:39;;;;;;;57.70;30.40;;;2.30;99.90;;;;;;5075233;28;20032;-79
2021/11/26 03:46:05;;;;;;;47.45;27.48;;;2.30;99.90;;;;;;5075169;28;20028;-80
2021/11/26 03:48:30;;;;;;;55.45;30.17;;;2.40;99.90;;;;;;5074945;28;20028;-79
2021/11/26 03:50:56;;;;;;;58.35;30.35;;;2.40;99.90;;;;;;5075098;28;20491;-80
2021/11/26 03:53:22;;;;;;;55.78;30.92;;;2.40;99.90;;;;;;5075347;28;20016;-80
2021/11/26 03:55:48;;;;;;;61.70;33.05;;;2.30;99.90;;;;;;5075065;28;20107;-80
2021/11/26 03:58:14;;;;;;;55.22;30.50;;;2.30;99.90;;;;;;5075019;28;20076;-79
2021/11/26 04:00:40;;;;;;;54.65;30.17;;;2.30;99.90;;;;;;5093374;28;20103;-80
2021/11/26 04:03:06;;;;;;;55.95;30.67;;;2.50;99.90;;;;;;5074939;28;20032;-80
2021/11/26 04:05:32;;;;;;;59.83;33.15;;;2.50;99.90;;;;;;5074994;28;20028;-80
2021/11/26 04:07:59;;;;;;;56.25;31.23;;;2.30;99.90;;;;;;5074847;28;20511;-80
2021/11/26 04:10:25;;;;;;;59.47;32.03;;;2.40;99.90;;;;;;5093083;28;20023;-80
2021/11/26 04:12:52;;;;;;;53.13;28.02;;;2.40;99.90;;;;;;5074894;28;20097;-80
2021/11/26 04:15:18;;;;;;;54.58;30.88;;;2.50;99.90;;;;;;5074900;28;20059;-80
2021/11/26 04:17:47;;;;;;;57.92;31.98;;;2.50;99.90;;;;;;5074972;28;20016;-80
2021/11/26 04:20:13;;;;;;;58.53;32.60;;;2.10;99.90;;;;;;5093067;28;20027;-80
2021/11/26 04:22:39;;;;;;;55.70;31.40;;;2.20;99.90;;;;;;5074916;28;20021;-80
2021/11/26 04:25:09;;;;;;;54.88;31.02;;;2.10;99.90;;;;;;5092954;28;20091;-80
2021/11/26 04:27:35;;;;;;;60.28;33.15;;;2.10;99.90;;;;;;5092943;28;20077;-80
2021/11/26 04:30:02;;;;;;;48.17;27.52;;;2.30;99.90;;;;;;5074723;28;20479;-79
2021/11/26 04:32:28;;;;;;;54.10;29.42;;;2.40;99.90;;;;;;5092873;28;20021;-80
2021/11/26 04:34:54;;;;;;;53.35;29.92;;;2.60;99.90;;;;;;5074846;28;20101;-80
2021/11/26 04:37:20;;;;;;;53.45;29.02;;;2.60;99.90;;;;;;5071232;28;20449;-80
2021/11/26 04:39:45;;;;;;;47.88;26.50;;;2.60;99.90;;;;;;5071344;28;20029;-80
2021/11/26 04:42:11;;;;;;;50.83;28.40;;;2.60;99.90;;;;;;5071287;28;20115;-80
2021/11/26 04:44:37;;;;;;;51.78;28.98;;;2.50;99.90;;;;;;5071256;28;20075;-80
2021/11/26 04:47:03;;;;;;;46.70;26.13;;;2.50;99.90;;;;;;5071267;28;20056;-80
2021/11/26 04:49:29;;;;;;;47.95;26.30;;;2.40;99.90;;;;;;5075013;28;20062;-80
2021/11/26 04:51:55;;;;;;;45.55;26.52;;;2.30;99.90;;;;;;5076324;28;20052;-80
2021/11/26 04:54:21;;;;;;;46.40;25.50;;;2.30;99.90;;;;;;5074962;28;20035;-80
2021/11/26 04:56:47;;;;;;;45.35;26.85;;;2.50;99.90;;;;;;5074963;28;20031;-80
2021/11/26 04:59:13;;;;;;;44.72;25.52;;;2.60;99.90;;;;;;5076167;28;20387;-80
2021/11/26 05:01:38;;;;;;;49.45;27.40;;;2.60;99.90;;;;;;5074824;28;20024;-80
2021/11/26 05:04:04;;;;;;;51.50;28.40;;;2.60;99.90;;;;;;5074830;28;20036;-80
2021/11/26 05:06:33;;;;;;;45.35;25.65;;;2.50;99.90;;;;;;5074714;28;20051;-80
2021/11/26 05:09:00;;;;;;;52.33;27.83;;;2.70;99.90;;;;;;5075926;28;20476;-80
2021/11/26 05:11:25;;;;;;;46.15;25.20;;;2.70;99.90;;;;;;5075970;28;20095;-80
2021/11/26 05:13:51;;;;;;;43.33;24.88;;;2.60;99.90;;;;;;5075926;28;20448;-79
2021/11/26 05:16:18;;;;;;;48.03;27.77;;;2.50;99.90;;;;;;5074606;28;20031;-79
2021/11/26 05:18:44;;;;;;;53.25;29.20;;;2.50;99.90;;;;;;5074541;28;20024;-79
2021/11/26 05:21:11;;;;;;;57.10;29.38;;;2.40;99.90;;;;;;5074472;28;20025;-80
2021/11/26 05:23:37;;;;;;;49.85;27.33;;;2.40;99.90;;;;;;5074444;28;20056;-80
2021/11/26 05:26:03;;;;;;;43.75;24.35;;;2.50;99.90;;;;;;5075704;28;20527;-79
2021/11/26 05:28:30;;;;;;;45.17;25.35;;;2.60;99.90;;;;;;5074607;28;20107;-80
2021/11/26 05:30:57;;;;;;;47.65;27.27;;;2.70;99.90;;;;;;5074367;28;20021;-79
2021/11/26 05:33:23;;;;;;;44.88;26.23;;;2.60;99.90;;;;;;5075579;28;20025;-79
2021/11/26 05:35:48;;;;;;;45.17;25.60;;;2.80;99.90;;;;;;5075657;28;20031;-80
2021/11/26 05:38:14;;;;;;;48.53;27.45;;;2.90;99.90;;;;;;5077493;28;20506;-79
2021/11/26 05:40:40;;;;;;;50.05;26.67;;;2.90;99.90;;;;;;5077713;28;20480;-80
2021/11/26 05:43:06;;;;;;;43.00;24.23;;;2.70;99.90;;;;;;5077398;28;20036;-79
2021/11/26 05:45:32;;;;;;;39.45;22.85;;;2.70;99.90;;;;;;5077333;28;20024;-80
2021/11/26 05:47:58;;;;;;;41.67;24.75;;;3.00;99.90;;;;;;5077112;28;20063;-79
2021/11/26 05:50:25;;;;;;;41.53;24.23;;;3.00;99.90;;;;;;5077338;28;20337;-80
2021/11/26 05:52:50;;;;;;;41.85;23.75;;;2.80;99.90;;;;;;5095598;28;20074;-80
2021/11/26 05:55:19;;;;;;;46.30;26.58;;;2.60;99.90;;;;;;5095357;28;20480;-79
2021/11/26 05:57:46;;;;;;;39.25;22.08;;;2.80;99.90;;;;;;5095268;28;20047;-80
2021/11/26 06:00:14;;;;;;;40.35;22.92;;;2.80;99.90;;;;;;5076258;28;20020;-79
2021/11/26 06:02:40;;;;;;;36.25;22.08;;;2.90;99.90;;;;;;5077101;28;20028;-79
2021/11/26 06:05:07;;;;;;;37.28;20.92;;;2.90;99.90;;;;;;5095050;28;20020;-79
2021/11/26 06:07:34;;;;;;;39.47;23.08;;;2.90;99.90;;;;;;5095129;28;20095;-80
2021/11/26 06:10:00;;;;;;;47.10;24.10;;;2.80;99.90;;;;;;5094982;28;20031;-80
2021/11/26 06:12:26;;;;;;;40.17;23.25;;;2.70;99.90;;;;;;5076830;28;20034;-79
2021/11/26 06:14:54;;;;;;;43.42;24.20;;;2.60;99.90;;;;;;5076766;28;20023;-80
2021/11/26 06:17:21;;;;;;;40.03;23.40;;;2.50;99.90;;;;;;5076753;28;20111;-80
2021/11/26 06:19:47;;;;;;;39.53;23.30;;;2.40;99.90;;;;;;5094846;28;20071;-80
2021/11/26 06:22:13;;;;;;;39.80;21.27;;;2.40;99.90;;;;;;5076680;28;20374;-80
2021/11/26 06:24:39;;;;;;;40.70;21.85;;;2.40;99.90;;;;;;5076593;28;20483;-79
2021/11/26 06:27:04;;;;;;;33.38;19.60;;;2.50;99.90;;;;;;5076526;28;20111;-79
2021/11/26 06:29:30;;;;;;;34.13;20.60;;;2.60;99.90;;;;;;5076359;28;20020;-81
2021/11/26 06:31:56;;;;;;;33.38;21.00;;;2.70;99.90;;;;;;5094638;28;20051;-80
2021/11/26 06:34:22;;;;;;;35.67;20.17;;;2.80;99.90;;;;;;5076388;28;20058;-80
2021/11/26 06:36:48;;;;;;;33.42;19.20;;;2.90;99.90;;;;;;5076128;28;20399;-79
2021/11/26 06:39:14;;;;;;;43.72;21.88;;;2.90;99.90;;;;;;5094474;28;20099;-80
2021/11/26 06:41:40;;;;;;;37.15;20.98;;;2.90;99.90;;;;;;5076171;28;20491;-79
2021/11/26 06:44:05;;;;;;;38.03;20.98;;;2.90;99.90;;;;;;5076224;28;20495;-79
2021/11/26 06:46:31;;;;;;;38.88;22.50;;;2.90;99.90;;;;;;5075996;28;20023;-80
2021/11/26 06:48:57;;;;;;;35.35;20.55;;;2.80;99.90;;;;;;5075905;28;20458;-80
2021/11/26 06:51:23;;;;;;;36.17;20.52;;;2.70;99.90;;;;;;5094227;28;20080;-80
2021/11/26 06:53:49;;;;;;;38.75;21.60;;;2.80;99.90;;;;;;5075982;28;20111;-80
2021/11/26 06:56:15;;;;;;;37.22;21.65;;;2.60;99.90;;;;;;5075858;28;20428;-80
2021/11/26 06:58:41;;;;;;;37.97;21.20;;;2.50;99.90;;;;;;5076408;28;20047;-80
2021/11/26 07:01:06;;;;;;;37.08;21.33;;;2.40;99.90;;;;;;5076180;28;20024;-80
2021/11/26 07:03:32;;;;;;;37.55;21.98;;;2.40;99.90;;;;;;5094226;28;20023;-80
2021/11/26 07:05:58;;;;;;;40.28;21.85;;;2.40;99.90;;;;;;5075719;28;20034;-80
2021/11/26 07:08:24;;;;;;;36.95;21.27;;;2.30;99.90;;;;;;5075606;28;20498;-80
2021/11/26 07:10:51;;;;;;;35.70;20.23;;;2.30;99.90;;;;;;5075600;28;20037;-80
2021/11/26 07:13:17;;;;;;;33.95;20.33;;;2.40;99.90;;;;;;5075545;28;20028;-79
2021/11/26 07:15:42;;;;;;;39.33;21.15;;;2.40;99.90;;;;;;5075581;28;20027;-79
2021/11/26 07:18:08;;;;;;;38.72;21.15;;;2.40;99.90;;;;;;5075497;28;20020;-80
2021/11/26 07:20:35;;;;;;;37.30;20.48;;;2.30;99.90;;;;;;5093649;28;20055;-79
2021/11/26 07:23:01;;;;;;;37.95;21.30;;;2.30;99.90;;;;;;5075450;28;20471;-80
2021/11/26 07:25:27;;;;;;;40.17;22.33;;;2.40;99.90;;;;;;5075438;28;20020;-79
2021/11/26 07:27:54;;;;;;;38.50;22.08;;;2.50;99.90;;;;;;5075284;28;20103;-80
2021/11/26 07:30:20;;;;;;;38.35;22.63;;;2.40;99.90;;;;;;5075326;28;20024;-80
2021/11/26 07:32:46;;;;;;;45.60;24.80;;;2.50;99.90;;;;;;5075638;28;20020;-80
2021/11/26 07:35:13;;;;;;;48.60;26.45;;;2.30;99.90;;;;;;5093420;28;20095;-80
2021/11/26 07:37:39;;;;;;;37.63;22.13;;;2.30;99.90;;;;;;5075087;28;20077;-79
2021/11/26 07:40:11;;;;;;;49.92;25.92;;;2.50;99.90;;;;;;5075675;28;20051;-79
2021/11/26 07:42:37;;;;;;;39.72;23.90;;;2.50;99.90;;;;;;5075157;28;20032;-80
2021/11/26 07:45:03;;;;;;;42.10;23.50;;;2.50;99.90;;;;;;5075134;28;20032;-80
2021/11/26 07:47:29;;;;;;;47.00;26.17;;;2.60;99.90;;;;;;5075063;28;20020;-80
2021/11/26 07:49:55;;;;;;;46.90;24.10;;;2.80;99.90;;;;;;5074978;28;20369;-80
2021/11/26 07:52:20;;;;;;;50.75;27.90;;;2.80;99.90;;;;;;5075043;28;20024;-80
2021/11/26 07:54:47;;;;;;;52.60;28.15;;;2.60;99.90;;;;;;5093217;28;20068;-79
2021/11/26 07:57:12;;;;;;;47.05;23.42;;;2.50;99.90;;;;;;5074925;28;20016;-80
2021/11/26 07:59:38;;;;;;;56.83;29.88;;;2.60;99.90;;;;;;5075279;28;20046;-80
2021/11/26 08:02:04;;;;;;;40.40;23.45;;;2.60;99.90;;;;;;5093065;28;20027;-80
2021/11/26 08:04:31;;;;;;;57.38;30.10;;;2.60;99.90;;;;;;5093110;28;20501;-79
2021/11/26 08:06:57;;;;;;;41.83;22.58;;;2.70;99.90;;;;;;5074875;28;20445;-80
2021/11/26 08:09:23;;;;;;;43.17;22.85;;;2.80;99.90;;;;;;5093191;28;20111;-80
2021/11/26 08:11:50;;;;;;;44.72;23.83;;;2.80;99.90;;;;;;5074875;28;20085;-79
2021/11/26 08:14:17;;;;;;;53.40;29.65;;;2.90;99.90;;;;;;5074840;28;20044;-79
2021/11/26 08:16:44;;;;;;;51.53;26.35;;;2.90;99.90;;;;;;5074792;28;20020;-79
2021/11/26 08:19:10;;;;;;;52.92;27.50;;;2.80;99.90;;;;;;5092950;28;20054;-79
2021/11/26 08:21:37;;;;;;;55.85;28.48;;;2.80;99.90;;;;;;5092915;28;20046;-79
2021/11/26 08:24:05;;;;;;;56.10;30.52;;;2.90;99.90;;;;;;5078220;28;20020;-80
2021/11/26 08:26:32;;;;;;;50.90;27.73;;;2.90;99.90;;;;;;5078795;28;20024;-79
2021/11/26 08:28:58;;;;;;;54.03;28.25;;;2.90;99.90;;;;;;5096897;28;20028;-80
2021/11/26 08:31:24;;;;;;;54.17;29.02;;;2.80;99.90;;;;;;5078694;28;20016;-80
2021/11/26 08:33:50;;;;;;;63.80;33.63;;;3.00;99.90;;;;;;5078607;28;20024;-79
2021/11/26 08:36:16;;;;;;;63.22;32.80;;;2.90;99.90;;;;;;5096610;28;20401;-80
2021/11/26 08:38:42;;;;;;;39.85;23.98;;;2.90;99.90;;;;;;5078548;28;20032;-80
2021/11/26 08:41:08;;;;;;;57.55;30.65;;;3.00;99.90;;;;;;5078563;28;20020;-80
2021/11/26 08:43:33;;;;;;;52.75;26.90;;;3.10;99.90;;;;;;5078431;28;20028;-81
2021/11/26 08:46:00;;;;;;;66.95;35.10;;;3.10;99.90;;;;;;5096587;28;20024;-79
2021/11/26 08:48:26;;;;;;;62.97;32.55;;;3.10;99.90;;;;;;5078217;28;20027;-80
2021/11/26 08:50:52;;;;;;;76.18;38.47;;;3.00;99.90;;;;;;5078345;28;20024;-80
2021/11/26 08:53:19;;;;;;;71.63;35.00;;;2.90;99.90;;;;;;5078293;28;20020;-80
2021/11/26 08:55:52;;;;;;;54.13;27.27;;;2.90;99.90;;;;;;5078230;28;20016;-80
2021/11/26 08:58:19;;;;;;;68.30;35.42;;;2.90;99.90;;;;;;5079018;28;20055;-80
2021/11/26 09:00:44;;;;;;;67.38;34.78;;;2.90;99.90;;;;;;5078133;28;20130;-80
2021/11/26 09:03:12;;;;;;;62.95;31.48;;;2.80;99.90;;;;;;5078035;28;20451;-80
2021/11/26 09:05:38;;;;;;;63.05;32.58;;;2.60;99.90;;;;;;5077951;28;20095;-81
2021/11/26 09:08:04;;;;;;;59.67;30.52;;;2.70;99.90;;;;;;5096113;28;20021;-81
2021/11/26 09:10:35;;;;;;;62.22;30.58;;;2.80;99.90;;;;;;5077994;28;20024;-80
2021/11/26 09:13:02;;;;;;;63.15;32.80;;;2.60;99.90;;;;;;5078231;28;20023;-81
2021/11/26 09:15:28;;;;;;;69.00;33.72;;;2.70;99.90;;;;;;5077734;28;20387;-80
2021/11/26 09:17:54;;;;;;;65.65;32.47;;;2.50;99.90;;;;;;5096325;28;20016;-81
2021/11/26 09:20:20;;;;;;;77.70;37.25;;;2.50;99.90;;;;;;5077774;28;20027;-81
2021/11/26 09:22:47;;;;;;;84.72;39.92;;;2.60;99.90;;;;;;5078045;28;20030;-81
2021/11/26 09:25:14;;;;;;;71.50;34.53;;;2.30;99.90;;;;;;5077680;28;20073;-82
2021/11/26 09:27:40;;;;;;;82.93;37.13;;;2.40;99.90;;;;;;5077629;28;20051;-82
2021/11/26 09:30:09;;;;;;;82.65;40.33;;;2.60;99.90;;;;;;5077496;28;20032;-80
2021/11/26 09:32:35;;;;;;;80.25;37.95;;;2.50;99.90;;;;;;5095707;28;20049;-79
2021/11/26 09:35:01;;;;;;;71.20;35.42;;;2.30;99.90;;;;;;5076223;28;20028;-81
2021/11/26 09:37:27;;;;;;;68.03;31.67;;;2.30;99.90;;;;;;5077245;28;20514;-80
2021/11/26 09:39:53;;;;;;;68.18;33.65;;;2.30;99.90;;;;;;5077381;28;20446;-80
2021/11/26 09:42:20;;;;;;;76.40;36.92;;;2.40;99.90;;;;;;5077386;28;20032;-81
2021/11/26 09:44:46;;;;;;;76.80;36.60;;;2.50;99.90;;;;;;5077327;28;20114;-80
2021/11/26 09:47:12;;;;;;;87.20;40.33;;;2.60;99.90;;;;;;5077220;28;20454;-80
2021/11/26 09:49:38;;;;;;;67.90;31.98;;;2.70;99.90;;;;;;5077223;28;20051;-81
2021/11/26 09:52:04;;;;;;;57.63;28.92;;;2.80;99.90;;;;;;5077194;28;20070;-80
2021/11/26 09:54:40;;;;;;;56.20;28.50;;;2.70;99.90;;;;;;5095316;28;20049;-80
2021/11/26 09:57:08;;;;;;;81.50;36.55;;;2.90;99.90;;;;;;5077140;28;20425;-80
2021/11/26 09:59:35;;;;;;;81.95;38.75;;;2.80;99.90;;;;;;5076997;28;20036;-81
2021/11/26 10:02:21;;;;;;;71.57;34.70;;;2.90;99.90;;;;;;5095183;28;20479;-80
2021/11/26 10:05:01;;;;;;;70.95;34.55;;;3.00;99.90;;;;;;5077909;28;20032;-80
2021/11/26 10:07:27;;;;;;;65.78;31.65;;;3.00;99.90;;;;;;5077247;28;20078;-80
2021/11/26 10:09:54;;;;;;;73.38;34.05;;;3.10;99.90;;;;;;5094944;28;20020;-81
2021/11/26 10:12:20;;;;;;;70.72;32.58;;;3.20;99.90;;;;;;5095254;28;20042;-80
2021/11/26 10:14:48;;;;;;;67.93;32.33;;;3.30;99.90;;;;;;5076759;28;20020;-80
2021/11/26 10:17:22;;;;;;;67.68;32.40;;;3.20;99.90;;;;;;5060285;28;20109;-80
2021/11/26 10:19:50;;;;;;;68.90;32.75;;;3.30;99.90;;;;;;5076742;28;20024;-80
2021/11/26 10:22:23;;;;;;;73.63;35.88;;;3.10;99.90;;;;;;5076583;28;20506;-80
2021/11/26 10:25:05;;;;;;;79.43;38.00;;;3.00;99.90;;;;;;5076496;28;20546;-80
2021/11/26 10:27:50;;;;;;;68.38;30.95;;;2.80;99.90;;;;;;5076404;28;20036;-80
2021/11/26 10:30:41;;;;;;;75.78;36.40;;;2.80;99.90;;;;;;5076154;28;20475;-80
2021/11/26 10:33:12;;;;;;;84.22;38.15;;;2.80;99.90;;;;;;5076404;28;20050;-80
2021/11/26 10:35:41;;;;;;;80.70;37.15;;;2.70;99.90;;;;;;5076312;28;20479;-81
2021/11/26 10:38:11;;;;;;;72.07;34.13;;;2.70;99.90;;;;;;5076091;28;20046;-80
2021/11/26 10:40:40;;;;;;;76.88;36.50;;;2.70;99.90;;;;;;5076212;28;20035;-80
2021/11/26 10:43:13;;;;;;;89.15;39.13;;;2.70;99.90;;;;;;5076241;28;20066;-80
2021/11/26 10:59:09;;;;;;;66.72;29.88;;;3.00;99.90;;;;;;5094869;28;19958;-80
2021/11/26 11:01:45;;;;;;;72.20;34.03;;;2.90;99.90;;;;;;5075887;28;20039;-81
2021/11/26 11:04:23;;;;;;;65.20;31.95;;;3.00;99.90;;;;;;5075797;28;20028;-81
2021/11/26 11:07:05;;;;;;;78.05;38.47;;;3.10;99.90;;;;;;5075990;28;20039;-81
2021/11/26 11:09:46;;;;;;;61.72;31.25;;;3.20;99.90;;;;;;5075923;28;20070;-80
2021/11/26 11:12:14;;;;;;;74.38;33.85;;;3.20;99.90;;;;;;5075635;28;20028;-80
2021/11/26 11:14:52;;;;;;;71.55;31.88;;;3.30;99.90;;;;;;5094094;28;20488;-81
2021/11/26 11:17:19;;;;;;;67.60;33.83;;;3.30;99.90;;;;;;5076047;28;20110;-81
2021/11/26 11:19:45;;;;;;;78.50;36.90;;;3.30;99.90;;;;;;5075481;28;20032;-81
2021/11/26 11:22:11;;;;;;;64.22;30.75;;;3.20;99.90;;;;;;5075651;28;20046;-81
2021/11/26 11:24:37;;;;;;;63.25;30.40;;;3.10;99.90;;;;;;5093596;28;20024;-80
2021/11/26 11:27:04;;;;;;;63.47;31.65;;;3.10;99.90;;;;;;5075303;28;20059;-81
2021/11/26 11:29:30;;;;;;;68.90;32.55;;;3.20;99.90;;;;;;5075105;28;20055;-81
2021/11/26 11:31:58;;;;;;;65.80;31.40;;;3.30;99.90;;;;;;5075216;28;20059;-81
2021/11/26 11:34:27;;;;;;;67.00;30.60;;;3.30;99.90;;;;;;5075283;28;20024;-81
2021/11/26 11:36:55;;;;;;;65.35;30.90;;;3.40;99.90;;;;;;5093183;28;20040;-81
2021/11/26 11:39:21;;;;;;;72.88;31.67;;;3.30;99.90;;;;;;5075241;28;20024;-81
2021/11/26 11:41:53;;;;;;;61.80;29.02;;;3.40;99.90;;;;;;5093381;28;20502;-81
2021/11/26 11:44:25;;;;;;;68.10;31.58;;;3.40;99.90;;;;;;5075017;28;20052;-81
2021/11/26 11:46:51;;;;;;;72.47;32.00;;;3.40;99.90;;;;;;5074964;28;20450;-81
2021/11/26 11:49:30;;;;;;;59.28;28.30;;;3.40;99.90;;;;;;5093087;28;20058;-81
2021/11/26 11:52:01;;;;;;;61.97;28.42;;;3.40;99.90;;;;;;5075144;28;20020;-80
2021/11/26 11:54:45;;;;;;;70.85;30.92;;;3.30;99.90;;;;;;5075301;28;20020;-81
2021/11/26 11:57:25;;;;;;;59.35;28.08;;;3.40;99.90;;;;;;5092502;28;20024;-81
2021/11/26 11:59:53;;;;;;;58.92;28.48;;;3.40;99.90;;;;;;5075090;28;20568;-81
2021/11/26 12:02:27;;;;;;;61.30;28.38;;;3.40;99.90;;;;;;5093092;28;20054;-81
2021/11/26 12:04:54;;;;;;;57.65;27.63;;;3.50;99.90;;;;;;5074937;28;20081;-82
2021/11/26 12:07:28;;;;;;;59.95;28.73;;;3.60;99.90;;;;;;5074928;28;20395;-82
2021/11/26 12:10:20;;;;;;;62.03;28.73;;;3.70;99.90;;;;;;5074912;28;20031;-81
2021/11/26 12:12:55;;;;;;;72.03;32.55;;;3.70;99.90;;;;;;5072533;28;20069;-81
2021/11/26 12:15:32;;;;;;;79.25;30.90;;;3.60;99.90;;;;;;5075127;28;20035;-80
2021/11/26 12:18:01;;;;;;;63.97;31.50;;;3.40;99.90;;;;;;5074868;28;20020;-80
2021/11/26 12:20:28;;;;;;;66.60;28.83;;;3.40;99.90;;;;;;5074863;28;20395;-81
2021/11/26 12:22:58;;;;;;;57.72;27.48;;;3.30;99.90;;;;;;5074749;28;20024;-81
2021/11/26 12:28:12;;;;;;;58.03;28.20;;;3.50;99.90;;;;;;5093415;28;20107;-80
2021/11/26 12:30:41;;;;;;;59.25;27.67;;;3.40;99.90;;;;;;5074850;28;20380;-80
2021/11/26 12:33:24;;;;;;;63.40;28.65;;;3.10;99.90;;;;;;5074708;28;20406;-80
2021/11/26 12:35:59;;;;;;;49.50;24.83;;;3.00;99.90;;;;;;5074505;28;20356;-81
2021/11/26 12:38:38;;;;;;;60.00;27.35;;;3.20;99.90;;;;;;5074841;28;20020;-79
2021/11/26 12:41:04;;;;;;;65.90;31.92;;;3.30;99.90;;;;;;5092694;28;20364;-80
2021/11/26 12:43:39;;;;;;;60.25;30.35;;;3.30;99.90;;;;;;5074595;28;20483;-80
2021/11/26 12:46:05;;;;;;;53.75;24.63;;;3.30;99.90;;;;;;5074521;28;20036;-81
2021/11/26 12:48:35;;;;;;;47.92;24.90;;;3.40;99.90;;;;;;5074361;28;20479;-80
2021/11/26 12:51:04;;;;;;;55.65;28.02;;;3.50;99.90;;;;;;5092963;28;20016;-80
2021/11/26 12:53:32;;;;;;;53.55;24.02;;;3.60;99.90;;;;;;5074442;28;20024;-80